sensor_id;sensor_type;location;lat;lon;timestamp;P1;durP1;ratioP1;P2;durP2;ratioP2
80675;SDS011;70041;46.088;18.268;2023-11-19T00:00:49;7.03;;;3.00;;
80675;SDS011;70041;46.088;18.268;2023-11-19T00:03:16;7.45;;;2.60;;
80675;SDS011;70041;46.088;18.268;2023-11-19T00:05:41;12.63;;;4.00;;
80675;SDS011;70041;46.088;18.268;2023-11-19T00:08:06;9.83;;;3.33;;
80675;SDS011;70041;46.088;18.268;2023-11-19T00:10:33;7.43;;;3.30;;
80675;SDS011;70041;46.088;18.268;2023-11-19T00:12:59;7.22;;;2.88;;
80675;SDS011;70041;46.088;18.268;2023-11-19T00:15:24;6.82;;;2.53;;
80675;SDS011;70041;46.088;18.268;2023-11-19T00:17:50;7.97;;;2.50;;
80675;SDS011;70041;46.088;18.268;2023-11-19T00:20:17;4.82;;;2.35;;
80675;SDS011;70041;46.088;18.268;2023-11-19T00:22:43;5.57;;;2.63;;
80675;SDS011;70041;46.088;18.268;2023-11-19T00:25:09;5.55;;;2.17;;
80675;SDS011;70041;46.088;18.268;2023-11-19T00:27:35;6.47;;;2.47;;
80675;SDS011;70041;46.088;18.268;2023-11-19T00:30:02;8.75;;;2.80;;
80675;SDS011;70041;46.088;18.268;2023-11-19T00:32:30;6.70;;;2.10;;
80675;SDS011;70041;46.088;18.268;2023-11-19T00:34:55;6.10;;;2.17;;
80675;SDS011;70041;46.088;18.268;2023-11-19T00:37:22;7.73;;;2.70;;
80675;SDS011;70041;46.088;18.268;2023-11-19T00:39:48;6.20;;;1.95;;
80675;SDS011;70041;46.088;18.268;2023-11-19T00:42:13;5.40;;;2.17;;
80675;SDS011;70041;46.088;18.268;2023-11-19T00:44:39;7.13;;;2.57;;
80675;SDS011;70041;46.088;18.268;2023-11-19T00:47:04;6.97;;;2.40;;
80675;SDS011;70041;46.088;18.268;2023-11-19T00:49:30;7.57;;;3.07;;
80675;SDS011;70041;46.088;18.268;2023-11-19T00:51:57;8.27;;;3.38;;
80675;SDS011;70041;46.088;18.268;2023-11-19T00:54:24;8.68;;;2.80;;
80675;SDS011;70041;46.088;18.268;2023-11-19T00:56:51;5.53;;;2.47;;
80675;SDS011;70041;46.088;18.268;2023-11-19T00:59:19;7.25;;;2.80;;
80675;SDS011;70041;46.088;18.268;2023-11-19T01:01:44;13.32;;;3.03;;
80675;SDS011;70041;46.088;18.268;2023-11-19T01:04:10;7.77;;;3.00;;
80675;SDS011;70041;46.088;18.268;2023-11-19T01:06:35;6.80;;;2.43;;
80675;SDS011;70041;46.088;18.268;2023-11-19T01:09:01;5.95;;;2.60;;
80675;SDS011;70041;46.088;18.268;2023-11-19T01:11:27;7.03;;;2.77;;
80675;SDS011;70041;46.088;18.268;2023-11-19T01:13:53;6.68;;;2.38;;
80675;SDS011;70041;46.088;18.268;2023-11-19T01:16:19;7.10;;;3.10;;
80675;SDS011;70041;46.088;18.268;2023-11-19T01:18:48;6.65;;;2.58;;
80675;SDS011;70041;46.088;18.268;2023-11-19T01:21:14;6.95;;;3.15;;
80675;SDS011;70041;46.088;18.268;2023-11-19T01:23:41;8.32;;;2.60;;
80675;SDS011;70041;46.088;18.268;2023-11-19T01:26:10;7.40;;;2.80;;
80675;SDS011;70041;46.088;18.268;2023-11-19T01:28:37;6.33;;;2.63;;
80675;SDS011;70041;46.088;18.268;2023-11-19T01:31:04;5.55;;;2.47;;
80675;SDS011;70041;46.088;18.268;2023-11-19T01:33:30;7.07;;;2.60;;
80675;SDS011;70041;46.088;18.268;2023-11-19T01:35:55;8.40;;;3.43;;
80675;SDS011;70041;46.088;18.268;2023-11-19T01:38:23;4.47;;;2.40;;
80675;SDS011;70041;46.088;18.268;2023-11-19T01:40:49;7.60;;;3.63;;
80675;SDS011;70041;46.088;18.268;2023-11-19T01:43:36;7.57;;;3.30;;
80675;SDS011;70041;46.088;18.268;2023-11-19T01:46:04;7.53;;;3.17;;
80675;SDS011;70041;46.088;18.268;2023-11-19T01:48:34;6.25;;;2.80;;
80675;SDS011;70041;46.088;18.268;2023-11-19T01:51:04;8.45;;;3.00;;
80675;SDS011;70041;46.088;18.268;2023-11-19T01:53:30;6.68;;;2.70;;
80675;SDS011;70041;46.088;18.268;2023-11-19T01:55:57;8.25;;;3.10;;
80675;SDS011;70041;46.088;18.268;2023-11-19T01:58:23;6.87;;;2.60;;
80675;SDS011;70041;46.088;18.268;2023-11-19T02:00:49;8.23;;;3.47;;
80675;SDS011;70041;46.088;18.268;2023-11-19T02:03:15;8.82;;;3.75;;
80675;SDS011;70041;46.088;18.268;2023-11-19T02:05:41;10.18;;;3.53;;
80675;SDS011;70041;46.088;18.268;2023-11-19T02:08:07;8.68;;;3.35;;
80675;SDS011;70041;46.088;18.268;2023-11-19T02:10:33;11.18;;;3.67;;
80675;SDS011;70041;46.088;18.268;2023-11-19T02:12:58;8.30;;;3.58;;
80675;SDS011;70041;46.088;18.268;2023-11-19T02:15:24;10.33;;;4.50;;
80675;SDS011;70041;46.088;18.268;2023-11-19T02:17:52;14.38;;;4.65;;
80675;SDS011;70041;46.088;18.268;2023-11-19T02:20:18;9.40;;;5.13;;
80675;SDS011;70041;46.088;18.268;2023-11-19T02:22:45;11.52;;;4.78;;
80675;SDS011;70041;46.088;18.268;2023-11-19T02:25:14;7.70;;;3.00;;
80675;SDS011;70041;46.088;18.268;2023-11-19T02:30:27;9.57;;;3.63;;
80675;SDS011;70041;46.088;18.268;2023-11-19T02:32:55;8.33;;;4.10;;
80675;SDS011;70041;46.088;18.268;2023-11-19T02:35:23;7.97;;;3.80;;
80675;SDS011;70041;46.088;18.268;2023-11-19T02:37:49;8.23;;;3.80;;
80675;SDS011;70041;46.088;18.268;2023-11-19T02:40:14;8.23;;;3.80;;
80675;SDS011;70041;46.088;18.268;2023-11-19T02:42:40;8.23;;;3.15;;
80675;SDS011;70041;46.088;18.268;2023-11-19T02:45:06;9.00;;;3.67;;
80675;SDS011;70041;46.088;18.268;2023-11-19T02:47:33;8.57;;;3.77;;
80675;SDS011;70041;46.088;18.268;2023-11-19T02:49:58;10.60;;;4.22;;
80675;SDS011;70041;46.088;18.268;2023-11-19T02:52:24;9.77;;;3.67;;
80675;SDS011;70041;46.088;18.268;2023-11-19T02:54:50;9.70;;;3.80;;
80675;SDS011;70041;46.088;18.268;2023-11-19T02:57:15;9.13;;;3.40;;
80675;SDS011;70041;46.088;18.268;2023-11-19T02:59:44;11.27;;;4.50;;
80675;SDS011;70041;46.088;18.268;2023-11-19T03:02:09;9.27;;;4.45;;
80675;SDS011;70041;46.088;18.268;2023-11-19T03:04:40;10.60;;;4.05;;
80675;SDS011;70041;46.088;18.268;2023-11-19T03:07:08;12.40;;;4.07;;
80675;SDS011;70041;46.088;18.268;2023-11-19T03:09:34;12.75;;;4.85;;
80675;SDS011;70041;46.088;18.268;2023-11-19T03:12:03;11.35;;;4.30;;
80675;SDS011;70041;46.088;18.268;2023-11-19T03:14:32;10.07;;;4.33;;
80675;SDS011;70041;46.088;18.268;2023-11-19T03:16:59;7.65;;;3.58;;
80675;SDS011;70041;46.088;18.268;2023-11-19T03:19:25;11.13;;;3.97;;
80675;SDS011;70041;46.088;18.268;2023-11-19T03:21:51;8.70;;;4.25;;
80675;SDS011;70041;46.088;18.268;2023-11-19T03:24:17;12.63;;;4.87;;
80675;SDS011;70041;46.088;18.268;2023-11-19T03:26:42;9.48;;;4.70;;
80675;SDS011;70041;46.088;18.268;2023-11-19T03:29:12;12.93;;;4.43;;
80675;SDS011;70041;46.088;18.268;2023-11-19T03:31:41;10.80;;;4.07;;
80675;SDS011;70041;46.088;18.268;2023-11-19T03:34:07;9.45;;;3.40;;
80675;SDS011;70041;46.088;18.268;2023-11-19T03:36:33;8.20;;;3.23;;
80675;SDS011;70041;46.088;18.268;2023-11-19T03:38:59;10.38;;;4.00;;
80675;SDS011;70041;46.088;18.268;2023-11-19T03:41:24;10.10;;;3.65;;
80675;SDS011;70041;46.088;18.268;2023-11-19T03:43:50;10.67;;;3.80;;
80675;SDS011;70041;46.088;18.268;2023-11-19T03:46:18;9.20;;;3.47;;
80675;SDS011;70041;46.088;18.268;2023-11-19T03:48:44;8.63;;;3.97;;
80675;SDS011;70041;46.088;18.268;2023-11-19T03:51:11;8.95;;;3.88;;
80675;SDS011;70041;46.088;18.268;2023-11-19T03:53:40;9.97;;;4.30;;
80675;SDS011;70041;46.088;18.268;2023-11-19T03:56:11;11.82;;;5.45;;
80675;SDS011;70041;46.088;18.268;2023-11-19T03:58:37;12.50;;;4.80;;
80675;SDS011;70041;46.088;18.268;2023-11-19T04:01:04;11.63;;;5.47;;
80675;SDS011;70041;46.088;18.268;2023-11-19T04:03:30;12.85;;;4.88;;
80675;SDS011;70041;46.088;18.268;2023-11-19T04:05:55;8.57;;;3.70;;
80675;SDS011;70041;46.088;18.268;2023-11-19T04:08:21;9.00;;;4.63;;
80675;SDS011;70041;46.088;18.268;2023-11-19T04:10:47;9.68;;;4.15;;
80675;SDS011;70041;46.088;18.268;2023-11-19T04:13:13;9.10;;;3.97;;
80675;SDS011;70041;46.088;18.268;2023-11-19T04:15:38;12.60;;;4.70;;
80675;SDS011;70041;46.088;18.268;2023-11-19T04:18:03;8.87;;;4.93;;
80675;SDS011;70041;46.088;18.268;2023-11-19T04:20:29;8.40;;;3.73;;
80675;SDS011;70041;46.088;18.268;2023-11-19T04:22:55;8.90;;;4.28;;
80675;SDS011;70041;46.088;18.268;2023-11-19T04:25:21;7.27;;;3.50;;
80675;SDS011;70041;46.088;18.268;2023-11-19T04:27:46;7.68;;;3.67;;
80675;SDS011;70041;46.088;18.268;2023-11-19T04:30:13;9.53;;;3.37;;
80675;SDS011;70041;46.088;18.268;2023-11-19T04:32:38;5.95;;;2.85;;
80675;SDS011;70041;46.088;18.268;2023-11-19T04:35:04;8.73;;;3.53;;
80675;SDS011;70041;46.088;18.268;2023-11-19T04:37:31;7.38;;;3.70;;
80675;SDS011;70041;46.088;18.268;2023-11-19T04:39:57;8.03;;;3.27;;
80675;SDS011;70041;46.088;18.268;2023-11-19T04:42:22;8.43;;;3.37;;
80675;SDS011;70041;46.088;18.268;2023-11-19T04:44:49;7.95;;;3.33;;
80675;SDS011;70041;46.088;18.268;2023-11-19T04:47:14;7.30;;;3.33;;
80675;SDS011;70041;46.088;18.268;2023-11-19T04:49:40;11.43;;;5.07;;
80675;SDS011;70041;46.088;18.268;2023-11-19T04:52:08;9.68;;;3.92;;
80675;SDS011;70041;46.088;18.268;2023-11-19T04:54:33;6.55;;;3.13;;
80675;SDS011;70041;46.088;18.268;2023-11-19T04:56:59;9.87;;;4.30;;
80675;SDS011;70041;46.088;18.268;2023-11-19T04:59:24;11.43;;;4.57;;
80675;SDS011;70041;46.088;18.268;2023-11-19T05:01:49;8.17;;;3.33;;
80675;SDS011;70041;46.088;18.268;2023-11-19T05:04:15;7.13;;;3.28;;
80675;SDS011;70041;46.088;18.268;2023-11-19T05:06:41;7.33;;;3.40;;
80675;SDS011;70041;46.088;18.268;2023-11-19T05:09:06;8.17;;;3.10;;
80675;SDS011;70041;46.088;18.268;2023-11-19T05:11:38;8.68;;;3.63;;
80675;SDS011;70041;46.088;18.268;2023-11-19T05:14:04;8.18;;;2.78;;
80675;SDS011;70041;46.088;18.268;2023-11-19T05:16:30;6.82;;;2.95;;
80675;SDS011;70041;46.088;18.268;2023-11-19T05:18:55;5.93;;;2.70;;
80675;SDS011;70041;46.088;18.268;2023-11-19T05:21:21;5.73;;;2.70;;
80675;SDS011;70041;46.088;18.268;2023-11-19T05:23:46;7.55;;;3.25;;
80675;SDS011;70041;46.088;18.268;2023-11-19T05:26:21;6.40;;;2.47;;
80675;SDS011;70041;46.088;18.268;2023-11-19T05:28:48;4.85;;;2.50;;
80675;SDS011;70041;46.088;18.268;2023-11-19T05:31:14;5.60;;;2.90;;
80675;SDS011;70041;46.088;18.268;2023-11-19T05:33:39;7.43;;;3.08;;
80675;SDS011;70041;46.088;18.268;2023-11-19T05:36:05;6.97;;;3.15;;
80675;SDS011;70041;46.088;18.268;2023-11-19T05:38:33;6.43;;;3.13;;
80675;SDS011;70041;46.088;18.268;2023-11-19T05:40:58;6.67;;;2.93;;
80675;SDS011;70041;46.088;18.268;2023-11-19T05:43:24;10.27;;;4.03;;
80675;SDS011;70041;46.088;18.268;2023-11-19T05:45:49;9.13;;;3.93;;
80675;SDS011;70041;46.088;18.268;2023-11-19T05:48:14;9.60;;;3.65;;
80675;SDS011;70041;46.088;18.268;2023-11-19T05:50:40;7.67;;;3.17;;
80675;SDS011;70041;46.088;18.268;2023-11-19T05:53:05;8.73;;;3.73;;
80675;SDS011;70041;46.088;18.268;2023-11-19T05:55:34;7.80;;;3.70;;
80675;SDS011;70041;46.088;18.268;2023-11-19T05:58:00;6.78;;;2.92;;
80675;SDS011;70041;46.088;18.268;2023-11-19T06:00:25;6.93;;;2.50;;
80675;SDS011;70041;46.088;18.268;2023-11-19T06:02:51;7.13;;;2.57;;
80675;SDS011;70041;46.088;18.268;2023-11-19T06:05:17;9.32;;;3.53;;
80675;SDS011;70041;46.088;18.268;2023-11-19T06:07:43;8.25;;;2.80;;
80675;SDS011;70041;46.088;18.268;2023-11-19T06:10:09;9.80;;;4.50;;
80675;SDS011;70041;46.088;18.268;2023-11-19T06:12:35;7.13;;;3.28;;
80675;SDS011;70041;46.088;18.268;2023-11-19T06:15:06;7.10;;;3.30;;
80675;SDS011;70041;46.088;18.268;2023-11-19T06:17:33;8.85;;;3.42;;
80675;SDS011;70041;46.088;18.268;2023-11-19T06:19:59;11.77;;;5.23;;
80675;SDS011;70041;46.088;18.268;2023-11-19T06:22:24;14.50;;;7.33;;
80675;SDS011;70041;46.088;18.268;2023-11-19T06:24:50;9.10;;;5.40;;
80675;SDS011;70041;46.088;18.268;2023-11-19T06:27:15;11.50;;;5.85;;
80675;SDS011;70041;46.088;18.268;2023-11-19T06:29:41;12.05;;;5.45;;
80675;SDS011;70041;46.088;18.268;2023-11-19T06:32:06;10.00;;;4.33;;
80675;SDS011;70041;46.088;18.268;2023-11-19T06:34:33;6.80;;;3.25;;
80675;SDS011;70041;46.088;18.268;2023-11-19T06:36:59;11.05;;;4.30;;
80675;SDS011;70041;46.088;18.268;2023-11-19T06:39:24;7.90;;;3.47;;
80675;SDS011;70041;46.088;18.268;2023-11-19T06:41:49;7.47;;;3.17;;
80675;SDS011;70041;46.088;18.268;2023-11-19T06:44:15;8.77;;;3.85;;
80675;SDS011;70041;46.088;18.268;2023-11-19T06:46:41;9.90;;;4.23;;
80675;SDS011;70041;46.088;18.268;2023-11-19T06:49:06;12.33;;;5.23;;
80675;SDS011;70041;46.088;18.268;2023-11-19T06:51:33;10.15;;;4.93;;
80675;SDS011;70041;46.088;18.268;2023-11-19T06:53:59;8.23;;;3.90;;
80675;SDS011;70041;46.088;18.268;2023-11-19T06:56:24;10.40;;;4.57;;
80675;SDS011;70041;46.088;18.268;2023-11-19T06:58:50;9.77;;;4.43;;
80675;SDS011;70041;46.088;18.268;2023-11-19T07:01:16;11.20;;;5.43;;
80675;SDS011;70041;46.088;18.268;2023-11-19T07:03:44;10.63;;;4.78;;
80675;SDS011;70041;46.088;18.268;2023-11-19T07:06:10;10.13;;;5.32;;
80675;SDS011;70041;46.088;18.268;2023-11-19T07:08:35;11.03;;;4.00;;
80675;SDS011;70041;46.088;18.268;2023-11-19T07:11:01;10.10;;;5.03;;
80675;SDS011;70041;46.088;18.268;2023-11-19T07:13:27;11.27;;;4.53;;
80675;SDS011;70041;46.088;18.268;2023-11-19T07:15:53;15.98;;;7.43;;
80675;SDS011;70041;46.088;18.268;2023-11-19T07:18:20;12.85;;;5.97;;
80675;SDS011;70041;46.088;18.268;2023-11-19T07:20:47;12.05;;;5.80;;
80675;SDS011;70041;46.088;18.268;2023-11-19T07:23:13;14.47;;;6.23;;
80675;SDS011;70041;46.088;18.268;2023-11-19T07:25:41;14.70;;;6.80;;
80675;SDS011;70041;46.088;18.268;2023-11-19T07:28:08;16.92;;;6.43;;
80675;SDS011;70041;46.088;18.268;2023-11-19T07:30:34;12.52;;;6.03;;
80675;SDS011;70041;46.088;18.268;2023-11-19T07:33:00;11.63;;;6.27;;
80675;SDS011;70041;46.088;18.268;2023-11-19T07:35:26;11.53;;;5.93;;
80675;SDS011;70041;46.088;18.268;2023-11-19T07:37:51;8.45;;;4.97;;
80675;SDS011;70041;46.088;18.268;2023-11-19T07:40:16;9.13;;;4.73;;
80675;SDS011;70041;46.088;18.268;2023-11-19T07:42:42;13.50;;;5.83;;
80675;SDS011;70041;46.088;18.268;2023-11-19T07:45:07;11.20;;;5.23;;
80675;SDS011;70041;46.088;18.268;2023-11-19T07:47:33;19.67;;;9.13;;
80675;SDS011;70041;46.088;18.268;2023-11-19T07:49:59;15.63;;;8.45;;
80675;SDS011;70041;46.088;18.268;2023-11-19T07:52:24;17.87;;;8.60;;
80675;SDS011;70041;46.088;18.268;2023-11-19T07:54:50;13.53;;;5.93;;
80675;SDS011;70041;46.088;18.268;2023-11-19T07:57:15;11.63;;;5.80;;
80675;SDS011;70041;46.088;18.268;2023-11-19T07:59:41;13.50;;;6.13;;
80675;SDS011;70041;46.088;18.268;2023-11-19T08:02:06;11.85;;;6.38;;
80675;SDS011;70041;46.088;18.268;2023-11-19T08:04:31;10.40;;;5.37;;
80675;SDS011;70041;46.088;18.268;2023-11-19T08:06:57;13.80;;;6.53;;
80675;SDS011;70041;46.088;18.268;2023-11-19T08:09:22;14.53;;;7.07;;
80675;SDS011;70041;46.088;18.268;2023-11-19T08:11:48;15.63;;;7.40;;
80675;SDS011;70041;46.088;18.268;2023-11-19T08:14:13;15.90;;;6.75;;
80675;SDS011;70041;46.088;18.268;2023-11-19T08:16:41;13.33;;;6.57;;
80675;SDS011;70041;46.088;18.268;2023-11-19T08:19:07;15.73;;;6.82;;
80675;SDS011;70041;46.088;18.268;2023-11-19T08:21:33;11.30;;;5.90;;
80675;SDS011;70041;46.088;18.268;2023-11-19T08:23:59;12.50;;;6.57;;
80675;SDS011;70041;46.088;18.268;2023-11-19T08:26:24;13.03;;;6.53;;
80675;SDS011;70041;46.088;18.268;2023-11-19T08:28:49;11.47;;;5.83;;
80675;SDS011;70041;46.088;18.268;2023-11-19T08:31:17;12.10;;;5.65;;
80675;SDS011;70041;46.088;18.268;2023-11-19T08:33:42;8.40;;;4.23;;
80675;SDS011;70041;46.088;18.268;2023-11-19T08:36:07;8.40;;;4.00;;
80675;SDS011;70041;46.088;18.268;2023-11-19T08:38:33;9.15;;;4.13;;
80675;SDS011;70041;46.088;18.268;2023-11-19T08:40:59;9.83;;;4.37;;
80675;SDS011;70041;46.088;18.268;2023-11-19T08:43:27;9.70;;;3.80;;
80675;SDS011;70041;46.088;18.268;2023-11-19T08:45:53;9.20;;;4.93;;
80675;SDS011;70041;46.088;18.268;2023-11-19T08:48:18;11.13;;;5.60;;
80675;SDS011;70041;46.088;18.268;2023-11-19T08:50:44;11.37;;;5.10;;
80675;SDS011;70041;46.088;18.268;2023-11-19T08:53:09;11.83;;;4.37;;
80675;SDS011;70041;46.088;18.268;2023-11-19T08:55:34;10.68;;;5.45;;
80675;SDS011;70041;46.088;18.268;2023-11-19T08:58:00;15.07;;;6.90;;
80675;SDS011;70041;46.088;18.268;2023-11-19T09:00:26;11.93;;;5.30;;
80675;SDS011;70041;46.088;18.268;2023-11-19T09:02:51;9.37;;;4.13;;
80675;SDS011;70041;46.088;18.268;2023-11-19T09:05:16;10.05;;;4.30;;
80675;SDS011;70041;46.088;18.268;2023-11-19T09:07:42;9.43;;;4.50;;
80675;SDS011;70041;46.088;18.268;2023-11-19T09:10:07;9.27;;;4.33;;
80675;SDS011;70041;46.088;18.268;2023-11-19T09:12:33;13.05;;;5.72;;
80675;SDS011;70041;46.088;18.268;2023-11-19T09:15:00;13.77;;;6.40;;
80675;SDS011;70041;46.088;18.268;2023-11-19T09:17:25;15.98;;;6.43;;
80675;SDS011;70041;46.088;18.268;2023-11-19T09:19:51;16.10;;;8.00;;
80675;SDS011;70041;46.088;18.268;2023-11-19T09:22:16;15.63;;;7.80;;
80675;SDS011;70041;46.088;18.268;2023-11-19T09:24:41;17.07;;;7.87;;
80675;SDS011;70041;46.088;18.268;2023-11-19T09:27:09;18.73;;;8.90;;
80675;SDS011;70041;46.088;18.268;2023-11-19T09:29:34;27.23;;;10.37;;
80675;SDS011;70041;46.088;18.268;2023-11-19T09:31:59;32.53;;;11.40;;
80675;SDS011;70041;46.088;18.268;2023-11-19T09:34:25;28.75;;;10.90;;
80675;SDS011;70041;46.088;18.268;2023-11-19T09:36:51;17.73;;;6.67;;
80675;SDS011;70041;46.088;18.268;2023-11-19T09:39:16;11.47;;;4.83;;
80675;SDS011;70041;46.088;18.268;2023-11-19T09:41:43;18.98;;;7.03;;
80675;SDS011;70041;46.088;18.268;2023-11-19T09:44:10;15.75;;;6.20;;
80675;SDS011;70041;46.088;18.268;2023-11-19T09:46:38;7.43;;;3.08;;
80675;SDS011;70041;46.088;18.268;2023-11-19T09:49:06;7.07;;;3.53;;
80675;SDS011;70041;46.088;18.268;2023-11-19T09:51:34;11.10;;;4.30;;
80675;SDS011;70041;46.088;18.268;2023-11-19T09:54:00;6.70;;;2.90;;
80675;SDS011;70041;46.088;18.268;2023-11-19T09:56:26;7.60;;;3.30;;
80675;SDS011;70041;46.088;18.268;2023-11-19T09:58:54;6.95;;;2.88;;
80675;SDS011;70041;46.088;18.268;2023-11-19T10:01:20;9.03;;;3.13;;
80675;SDS011;70041;46.088;18.268;2023-11-19T10:03:46;10.65;;;4.47;;
80675;SDS011;70041;46.088;18.268;2023-11-19T10:06:12;10.27;;;4.18;;
80675;SDS011;70041;46.088;18.268;2023-11-19T10:08:42;9.97;;;3.87;;
80675;SDS011;70041;46.088;18.268;2023-11-19T10:11:08;8.55;;;3.80;;
80675;SDS011;70041;46.088;18.268;2023-11-19T10:13:36;9.48;;;4.15;;
80675;SDS011;70041;46.088;18.268;2023-11-19T10:16:09;8.18;;;4.38;;
80675;SDS011;70041;46.088;18.268;2023-11-19T10:18:36;10.05;;;4.40;;
80675;SDS011;70041;46.088;18.268;2023-11-19T10:21:05;8.43;;;4.67;;
80675;SDS011;70041;46.088;18.268;2023-11-19T10:23:31;10.13;;;4.35;;
80675;SDS011;70041;46.088;18.268;2023-11-19T10:26:12;11.07;;;4.68;;
80675;SDS011;70041;46.088;18.268;2023-11-19T10:28:38;11.57;;;4.27;;
80675;SDS011;70041;46.088;18.268;2023-11-19T10:31:05;11.27;;;5.10;;
80675;SDS011;70041;46.088;18.268;2023-11-19T10:33:31;9.70;;;4.30;;
80675;SDS011;70041;46.088;18.268;2023-11-19T10:35:57;11.57;;;4.68;;
80675;SDS011;70041;46.088;18.268;2023-11-19T10:38:23;10.65;;;4.18;;
80675;SDS011;70041;46.088;18.268;2023-11-19T10:40:50;8.40;;;3.50;;
80675;SDS011;70041;46.088;18.268;2023-11-19T10:43:19;8.82;;;3.78;;
80675;SDS011;70041;46.088;18.268;2023-11-19T10:45:46;9.48;;;3.70;;
80675;SDS011;70041;46.088;18.268;2023-11-19T10:48:11;7.67;;;3.30;;
80675;SDS011;70041;46.088;18.268;2023-11-19T10:50:38;7.93;;;3.40;;
80675;SDS011;70041;46.088;18.268;2023-11-19T10:53:05;9.82;;;3.90;;
80675;SDS011;70041;46.088;18.268;2023-11-19T10:55:35;9.37;;;3.83;;
80675;SDS011;70041;46.088;18.268;2023-11-19T10:58:07;6.90;;;3.20;;
80675;SDS011;70041;46.088;18.268;2023-11-19T11:03:16;6.32;;;3.03;;
80675;SDS011;70041;46.088;18.268;2023-11-19T11:05:43;6.78;;;2.97;;
80675;SDS011;70041;46.088;18.268;2023-11-19T11:08:14;6.60;;;2.88;;
80675;SDS011;70041;46.088;18.268;2023-11-19T11:10:42;7.45;;;3.13;;
80675;SDS011;70041;46.088;18.268;2023-11-19T11:13:09;7.28;;;3.03;;
80675;SDS011;70041;46.088;18.268;2023-11-19T11:15:37;6.88;;;2.70;;
80675;SDS011;70041;46.088;18.268;2023-11-19T11:18:02;6.83;;;2.90;;
80675;SDS011;70041;46.088;18.268;2023-11-19T11:20:31;7.88;;;3.00;;
80675;SDS011;70041;46.088;18.268;2023-11-19T11:28:48;7.50;;;2.88;;
80675;SDS011;70041;46.088;18.268;2023-11-19T11:31:39;7.45;;;3.00;;
80675;SDS011;70041;46.088;18.268;2023-11-19T11:37:26;7.03;;;3.07;;
80675;SDS011;70041;46.088;18.268;2023-11-19T11:39:57;8.68;;;2.80;;
80675;SDS011;70041;46.088;18.268;2023-11-19T11:50:17;9.68;;;3.42;;
80675;SDS011;70041;46.088;18.268;2023-11-19T11:55:27;9.23;;;3.00;;
80675;SDS011;70041;46.088;18.268;2023-11-19T11:58:00;8.20;;;2.92;;
80675;SDS011;70041;46.088;18.268;2023-11-19T12:00:31;6.63;;;2.83;;
80675;SDS011;70041;46.088;18.268;2023-11-19T12:03:02;8.57;;;3.20;;
80675;SDS011;70041;46.088;18.268;2023-11-19T12:05:30;8.87;;;4.13;;
80675;SDS011;70041;46.088;18.268;2023-11-19T12:08:02;11.07;;;4.97;;
80675;SDS011;70041;46.088;18.268;2023-11-19T12:10:31;11.07;;;3.80;;
80675;SDS011;70041;46.088;18.268;2023-11-19T12:13:01;8.07;;;3.78;;
80675;SDS011;70041;46.088;18.268;2023-11-19T12:15:27;10.07;;;4.67;;
80675;SDS011;70041;46.088;18.268;2023-11-19T12:17:53;11.13;;;4.45;;
80675;SDS011;70041;46.088;18.268;2023-11-19T12:20:22;9.68;;;3.85;;
80675;SDS011;70041;46.088;18.268;2023-11-19T12:22:49;7.55;;;3.30;;
80675;SDS011;70041;46.088;18.268;2023-11-19T12:25:16;7.85;;;3.85;;
80675;SDS011;70041;46.088;18.268;2023-11-19T12:27:49;8.30;;;3.50;;
80675;SDS011;70041;46.088;18.268;2023-11-19T12:30:22;7.45;;;3.25;;
80675;SDS011;70041;46.088;18.268;2023-11-19T12:32:52;8.80;;;3.47;;
80675;SDS011;70041;46.088;18.268;2023-11-19T12:35:18;8.75;;;4.03;;
80675;SDS011;70041;46.088;18.268;2023-11-19T12:37:48;7.72;;;3.42;;
80675;SDS011;70041;46.088;18.268;2023-11-19T12:40:26;6.70;;;3.20;;
80675;SDS011;70041;46.088;18.268;2023-11-19T12:42:54;9.10;;;3.35;;
80675;SDS011;70041;46.088;18.268;2023-11-19T12:45:20;11.38;;;3.78;;
80675;SDS011;70041;46.088;18.268;2023-11-19T12:47:48;8.48;;;3.58;;
80675;SDS011;70041;46.088;18.268;2023-11-19T12:50:14;8.10;;;3.60;;
80675;SDS011;70041;46.088;18.268;2023-11-19T12:52:42;8.20;;;3.27;;
80675;SDS011;70041;46.088;18.268;2023-11-19T12:55:27;7.45;;;3.10;;
80675;SDS011;70041;46.088;18.268;2023-11-19T12:57:54;7.30;;;3.03;;
80675;SDS011;70041;46.088;18.268;2023-11-19T13:00:21;9.15;;;3.65;;
80675;SDS011;70041;46.088;18.268;2023-11-19T13:02:54;6.55;;;2.75;;
80675;SDS011;70041;46.088;18.268;2023-11-19T13:05:22;9.33;;;2.63;;
80675;SDS011;70041;46.088;18.268;2023-11-19T13:07:47;7.30;;;2.90;;
80675;SDS011;70041;46.088;18.268;2023-11-19T13:10:13;7.93;;;3.47;;
80675;SDS011;70041;46.088;18.268;2023-11-19T13:12:38;7.47;;;3.08;;
80675;SDS011;70041;46.088;18.268;2023-11-19T13:15:05;7.93;;;3.00;;
80675;SDS011;70041;46.088;18.268;2023-11-19T13:17:30;5.82;;;2.60;;
80675;SDS011;70041;46.088;18.268;2023-11-19T13:19:56;7.53;;;2.80;;
80675;SDS011;70041;46.088;18.268;2023-11-19T13:22:22;7.82;;;3.22;;
80675;SDS011;70041;46.088;18.268;2023-11-19T13:24:47;6.07;;;2.37;;
80675;SDS011;70041;46.088;18.268;2023-11-19T13:27:13;9.03;;;2.87;;
80675;SDS011;70041;46.088;18.268;2023-11-19T13:29:39;6.80;;;2.70;;
80675;SDS011;70041;46.088;18.268;2023-11-19T13:32:04;7.17;;;2.77;;
80675;SDS011;70041;46.088;18.268;2023-11-19T13:34:30;6.65;;;2.55;;
80675;SDS011;70041;46.088;18.268;2023-11-19T13:36:56;5.80;;;2.80;;
80675;SDS011;70041;46.088;18.268;2023-11-19T13:39:22;5.68;;;2.45;;
80675;SDS011;70041;46.088;18.268;2023-11-19T13:41:48;7.70;;;3.13;;
80675;SDS011;70041;46.088;18.268;2023-11-19T13:44:13;5.90;;;2.65;;
80675;SDS011;70041;46.088;18.268;2023-11-19T13:46:39;7.90;;;2.90;;
80675;SDS011;70041;46.088;18.268;2023-11-19T13:49:04;7.55;;;3.20;;
80675;SDS011;70041;46.088;18.268;2023-11-19T13:51:30;8.75;;;3.30;;
80675;SDS011;70041;46.088;18.268;2023-11-19T13:53:55;6.10;;;2.70;;
80675;SDS011;70041;46.088;18.268;2023-11-19T13:56:20;6.83;;;2.70;;
80675;SDS011;70041;46.088;18.268;2023-11-19T13:58:46;6.77;;;3.17;;
80675;SDS011;70041;46.088;18.268;2023-11-19T14:01:11;8.27;;;2.90;;
80675;SDS011;70041;46.088;18.268;2023-11-19T14:03:37;6.60;;;3.10;;
80675;SDS011;70041;46.088;18.268;2023-11-19T14:06:03;7.87;;;3.13;;
80675;SDS011;70041;46.088;18.268;2023-11-19T14:08:28;8.00;;;2.87;;
80675;SDS011;70041;46.088;18.268;2023-11-19T14:10:54;8.70;;;3.03;;
80675;SDS011;70041;46.088;18.268;2023-11-19T14:13:21;7.00;;;3.90;;
80675;SDS011;70041;46.088;18.268;2023-11-19T14:15:46;7.43;;;3.65;;
80675;SDS011;70041;46.088;18.268;2023-11-19T14:18:33;9.55;;;3.63;;
80675;SDS011;70041;46.088;18.268;2023-11-19T14:20:59;7.85;;;3.40;;
80675;SDS011;70041;46.088;18.268;2023-11-19T14:23:25;5.87;;;2.70;;
80675;SDS011;70041;46.088;18.268;2023-11-19T14:25:52;8.73;;;2.63;;
80675;SDS011;70041;46.088;18.268;2023-11-19T14:28:18;5.50;;;2.70;;
80675;SDS011;70041;46.088;18.268;2023-11-19T14:30:44;7.68;;;3.00;;
80675;SDS011;70041;46.088;18.268;2023-11-19T14:33:11;10.50;;;3.77;;
80675;SDS011;70041;46.088;18.268;2023-11-19T14:35:36;9.20;;;3.60;;
80675;SDS011;70041;46.088;18.268;2023-11-19T14:38:02;11.57;;;6.30;;
80675;SDS011;70041;46.088;18.268;2023-11-19T14:40:30;14.00;;;6.80;;
80675;SDS011;70041;46.088;18.268;2023-11-19T14:42:55;9.25;;;4.25;;
80675;SDS011;70041;46.088;18.268;2023-11-19T14:45:21;16.57;;;7.37;;
80675;SDS011;70041;46.088;18.268;2023-11-19T14:47:47;18.05;;;6.40;;
80675;SDS011;70041;46.088;18.268;2023-11-19T14:50:13;18.98;;;7.35;;
80675;SDS011;70041;46.088;18.268;2023-11-19T14:52:38;15.40;;;6.57;;